Time;durP1;ratioP1;P1;durP2;ratioP2;P2;SDS_P1;SDS_P2;PMS_P1;PMS_P2;Temp;Humidity;BMP_temperature;BMP_pressure;BME280_temperature;BME280_humidity;BME280_pressure;Samples;Min_cycle;Max_cycle;Signal;HPM_P1;HPM_P2
2023/02/03 03:07:54;;;;;;;;;;;;;;;5.95;100.00;100915.47;5083431;23;20375;-84
2023/02/03 03:10:23;;;;;;;;;;;;;;;5.98;100.00;100928.66;4974848;28;19926;-84
2023/02/03 03:13:06;;;;;;;;;;;;;;;5.99;100.00;100930.38;4974640;28;19918;-85
2023/02/03 03:15:40;;;;;;;;;;;;;;;6.00;100.00;100931.28;4974816;28;19918;-85
2023/02/03 03:18:14;;;;;;;;;;;;;;;6.02;100.00;100926.00;4974905;28;19957;-86
2023/02/03 03:20:41;;;;;;;;;;;;;;;6.03;100.00;100931.25;4956162;28;19926;-86
2023/02/03 03:23:10;;;;;;;;;;;;;;;6.04;100.00;100926.84;4974529;28;19953;-88
2023/02/03 03:25:38;;;;;;;;;;;;;;;6.07;100.00;100929.47;4974668;28;19918;-87
2023/02/03 03:28:07;;;;;;;;;;;;;;;6.06;100.00;100947.00;4974566;28;20372;-86
2023/02/03 03:30:34;;;;;;;;;;;;;;;6.08;100.00;100939.09;4974660;28;19940;-85
2023/02/03 03:33:00;;;;;;;;;;;;;;;6.08;100.00;100945.25;4974465;28;19922;-85
2023/02/03 03:35:30;;;;;;;;;;;;;;;6.09;100.00;100927.69;4973776;28;20280;-85
2023/02/03 03:38:02;;;;;;;;;;;;;;;6.09;100.00;100928.56;4974374;28;19949;-85
2023/02/03 03:40:31;;;;;;;;;;;;;;;6.13;100.00;100924.16;4974546;28;19918;-85
2023/02/03 03:43:00;;;;;;;;;;;;;;;6.13;100.00;100925.03;4974410;28;19950;-83
2023/02/03 03:45:37;;;;;;;;;;;;;;;6.16;100.00;100921.53;4974477;28;19926;-84
2023/02/03 03:48:05;;;;;;;;;;;;;;;6.15;100.00;100917.13;4957009;28;19918;-83
2023/02/03 03:50:33;;;;;;;;;;;;;;;6.17;100.00;100921.50;4973040;28;20005;-84
2023/02/03 03:53:00;;;;;;;;;;;;;;;6.17;100.00;100925.88;4974200;28;19918;-83
2023/02/03 03:55:27;;;;;;;;;;;;;;;6.19;100.00;100913.59;4974411;28;19926;-84
2023/02/03 03:58:02;;;;;;;;;;;;;;;6.19;100.00;100897.81;4974252;28;19918;-84
2023/02/03 04:00:29;;;;;;;;;;;;;;;6.20;100.00;100893.41;4974966;28;19918;-84
2023/02/03 04:02:56;;;;;;;;;;;;;;;6.23;100.00;100890.75;4977990;28;19918;-85
2023/02/03 04:05:23;;;;;;;;;;;;;;;6.22;100.00;100900.41;4978182;28;19922;-87
2023/02/03 04:07:48;;;;;;;;;;;;;;;6.22;100.00;100903.03;4976666;28;20424;-85
2023/02/03 08:58:29;;;;;;;;;;;;;;;4.18;100.00;100984.94;4443675;26;20068;-90
2023/02/03 09:00:54;;;;;;;;;;;;;;;4.31;100.00;100984.97;4955812;29;20006;-85
2023/02/03 09:03:22;;;;;;;;;;;;;;;4.39;100.00;100985.88;4957872;29;20002;-86
2023/02/03 09:06:06;;;;;;;;;;;;;;;4.48;100.00;100991.13;4957796;29;20006;-86
2023/02/03 09:08:34;;;;;;;;;;;;;;;4.58;100.00;100980.63;4938367;29;19922;-87
2023/02/03 09:11:02;;;;;;;;;;;;;;;4.65;100.00;100977.16;4955998;29;19922;-88
2023/02/03 09:13:29;;;;;;;;;;;;;;;4.76;100.00;100982.41;4957632;29;19919;-86
2023/02/03 09:15:58;;;;;;;;;;;;;;;4.90;100.00;100978.88;4956626;29;20474;-87
2023/02/03 09:18:26;;;;;;;;;;;;;;;4.85;100.00;100966.63;4924301;29;19926;-86
2023/02/03 09:21:10;;;;;;;;;;;;;;;4.86;100.00;100982.38;4940406;29;19974;-86
2023/02/03 09:23:45;;;;;;;;;;;;;;;4.90;100.00;100989.41;4939500;29;19962;-89
2023/02/03 09:29:14;;;;;;;;;;;;;;;4.99;100.00;100998.13;4950602;28;19970;-89
2023/02/03 09:31:42;;;;;;;;;;;;;;;5.04;100.00;100991.13;4956210;29;20382;-85
2023/02/03 09:34:43;;;;;;;;;;;;;;;5.07;100.00;100985.88;4957255;29;19918;-87
2023/02/03 09:37:17;;;;;;;;;;;;;;;5.13;100.00;100985.00;4912494;29;19923;-88
2023/02/03 09:39:47;;;;;;;;;;;;;;;5.22;100.00;100980.59;4957397;29;19919;-87
2023/02/03 09:42:36;;;;;;;;;;;;;;;5.26;100.00;100998.13;4938764;29;19918;-87
2023/02/03 09:45:09;;;;;;;;;;;;;;;5.89;100.00;101011.94;4910057;28;20165;-87
2023/02/03 09:47:40;;;;;;;;;;;;;;;5.86;100.00;101020.75;4955414;28;19922;-88
2023/02/03 09:50:10;;;;;;;;;;;;;;;5.64;100.00;101026.06;4956312;28;19923;-87
2023/02/03 09:52:58;;;;;;;;;;;;;;;5.58;100.00;101026.06;4955623;28;20392;-86
2023/02/03 09:55:29;;;;;;;;;;;;;;;5.60;100.00;100999.78;4955285;29;19919;-87
2023/02/03 09:58:01;;;;;;;;;;;;;;;5.60;100.00;100994.50;4951108;28;19922;-88
2023/02/03 10:00:33;;;;;;;;;;;;;;;5.63;100.00;100986.63;4955392;29;19969;-87
2023/02/03 10:03:13;;;;;;;;;;;;;;;5.63;100.00;100982.25;4953757;28;20441;-89
2023/02/03 10:06:07;;;;;;;;;;;;;;;5.67;100.00;100992.75;4956016;28;19930;-86
2023/02/03 10:08:38;;;;;;;;;;;;;;;5.68;100.00;100989.22;4935384;29;20537;-86
2023/02/03 10:11:09;;;;;;;;;;;;;;;5.69;100.00;100996.25;4936598;29;19918;-88
2023/02/03 10:13:53;;;;;;;;;;;;;;;5.69;100.00;100993.63;4935681;29;19958;-87
2023/02/03 10:16:27;;;;;;;;;;;;;;;5.72;100.00;100990.97;4954851;28;19923;-88
2023/02/03 10:19:19;;;;;;;;;;;;;;;5.74;100.00;100989.22;4955261;29;20009;-92
2023/02/03 10:25:02;;;;;;;;;;;;;;;5.78;100.00;101001.47;4948864;28;19925;-87
2023/02/03 10:27:33;;;;;;;;;;;;;;;5.77;100.00;100986.56;4956930;28;19922;-85
2023/02/03 10:30:19;;;;;;;;;;;;;;;5.83;100.00;100983.91;4956636;28;19918;-86
2023/02/03 10:32:45;;;;;;;;;;;;;;;5.83;100.00;100991.81;4954926;28;19976;-86
2023/02/03 10:35:17;;;;;;;;;;;;;;;5.83;100.00;101007.59;4955759;28;19923;-85
2023/02/03 10:37:44;;;;;;;;;;;;;;;5.86;100.00;101001.47;4956052;29;19919;-87
2023/02/03 10:40:12;;;;;;;;;;;;;;;5.87;100.00;100996.19;4955108;29;20008;-85
2023/02/03 10:45:21;;;;;;;;;;;;;;;5.89;100.00;100983.91;4954768;28;19980;-87
2023/02/03 10:47:54;;;;;;;;;;;;;;;5.90;100.00;100984.75;4938049;29;20395;-88
2023/02/03 10:50:21;;;;;;;;;;;;;;;5.90;100.00;100979.50;4953997;28;20401;-86
2023/02/03 10:52:47;;;;;;;;;;;;;;;5.92;100.00;100980.34;4923010;29;20386;-86
2023/02/03 10:55:18;;;;;;;;;;;;;;;5.94;100.00;100960.19;4955472;29;19950;-86
2023/02/03 10:57:59;;;;;;;;;;;;;;;;;;;;;
2023/02/03 11:03:19;;;;;;;;;;;;;;;5.99;100.00;100940.91;4948066;28;19922;-85
2023/02/03 11:06:07;;;;;;;;;;;;;;;6.02;100.00;100947.91;4952220;28;19929;-89
2023/02/03 11:08:36;;;;;;;;;;;;;;;6.02;100.00;100944.41;4928234;29;20009;-86
2023/02/03 11:11:05;;;;;;;;;;;;;;;6.03;100.00;100938.25;4935073;29;19927;-87
2023/02/03 11:13:32;;;;;;;;;;;;;;;6.04;100.00;100930.34;4934301;29;19922;-85
2023/02/03 11:16:00;;;;;;;;;;;;;;;6.07;100.00;100937.34;4953909;29;19922;-85
2023/02/03 11:18:33;;;;;;;;;;;;;;;6.06;100.00;100943.50;4954225;29;19923;-86
2023/02/03 11:20:58;;;;;;;;;;;;;;;5.93;100.00;100938.25;4937494;28;19949;-84
2023/02/03 11:23:27;;;;;;;;;;;;;;;5.89;100.00;100933.91;4951364;28;19957;-86
2023/02/03 11:25:52;;;;;;;;;;;;;;;5.90;100.00;100938.28;4953312;28;20390;-86
2023/02/03 11:28:17;;;;;;;;;;;;;;;5.91;100.00;100929.50;4952556;28;19977;-87
2023/02/03 11:30:45;;;;;;;;;;;;;;;5.92;100.00;100931.28;4937850;29;20366;-86
2023/02/03 11:33:28;;;;;;;;;;;;;;;5.94;100.00;100940.03;4896745;29;19940;-85
2023/02/03 11:35:57;;;;;;;;;;;;;;;5.94;100.00;100936.53;4913867;29;19970;-86
2023/02/03 11:38:48;;;;;;;;;;;;;;;5.94;100.00;100936.53;4912441;29;19946;-89
2023/02/03 11:44:33;;;;;;;;;;;;;;;;;;;;;
2023/02/03 11:47:08;;;;;;;;;;;;;;;6.00;100.00;100928.63;4911569;29;19927;-87
2023/02/03 11:49:56;;;;;;;;;;;;;;;5.99;100.00;100927.75;4909657;29;20018;-88
2023/02/03 11:52:24;;;;;;;;;;;;;;;6.02;100.00;100937.38;4912019;29;19934;-91
2023/02/03 11:55:06;;;;;;;;;;;;;;;6.03;100.00;100930.34;4913066;29;19923;-88
2023/02/03 11:57:34;;;;;;;;;;;;;;;6.05;100.00;100924.22;4920046;29;19933;-86
2023/02/03 12:00:18;;;;;;;;;;;;;;;6.06;100.00;100938.22;4934017;29;19941;-87
2023/02/03 12:02:52;;;;;;;;;;;;;;;6.06;100.00;100927.72;4929122;29;19970;-86
2023/02/03 12:05:38;;;;;;;;;;;;;;;6.08;100.00;100916.31;4935779;29;19923;-87
2023/02/03 12:08:22;;;;;;;;;;;;;;;6.11;100.00;100899.59;4917828;29;19972;-89
2023/02/03 12:11:22;;;;;;;;;;;;;;;6.11;100.00;100899.59;4934817;29;19930;-87
2023/02/03 12:13:58;;;;;;;;;;;;;;;5.06;100.00;100905.31;4895680;29;20381;-87
2023/02/03 12:16:26;;;;;;;;;;;;;;;4.62;100.00;100914.13;4916684;29;19926;-88
2023/02/03 12:19:03;;;;;;;;;;;;;;;4.43;100.00;100919.38;4916858;29;19919;-88
2023/02/03 12:21:32;;;;;;;;;;;;;;;4.32;100.00;100926.38;4917504;29;20309;-89
2023/02/03 12:23:57;;;;;;;;;;;;;;;4.17;100.00;100938.59;4937827;29;19960;-87
2023/02/03 12:26:24;;;;;;;;;;;;;;;4.07;100.00;100936.84;4937178;29;19957;-89
2023/02/03 12:28:55;;;;;;;;;;;;;;;4.02;100.00;100935.06;4921413;29;19919;-89
2023/02/03 12:31:26;;;;;;;;;;;;;;;3.96;100.00;100943.81;4937703;29;19946;-90
2023/02/03 12:34:11;;;;;;;;;;;;;;;3.93;100.00;100954.28;4938601;29;19923;-89
2023/02/03 12:36:45;;;;;;;;;;;;;;;3.82;100.00;100962.97;4937571;29;19923;-86
2023/02/03 12:39:18;;;;;;;;;;;;;;;3.74;100.00;100955.97;4939242;29;19924;-87
2023/02/03 12:41:54;;;;;;;;;;;;;;;3.71;100.00;100951.56;4918884;29;19978;-88
2023/02/03 12:44:28;;;;;;;;;;;;;;;3.70;100.00;100955.09;4939200;29;19918;-87
2023/02/03 12:46:59;;;;;;;;;;;;;;;3.64;100.00;100947.19;4938085;29;19954;-87
2023/02/03 12:49:43;;;;;;;;;;;;;;;3.62;100.00;100943.66;4937657;29;19978;-85
2023/02/03 12:52:08;;;;;;;;;;;;;;;3.60;100.00;100950.66;4937981;29;19934;-87
2023/02/03 12:54:44;;;;;;;;;;;;;;;3.60;100.00;100940.16;4936941;29;19922;-88
2023/02/03 12:57:27;;;;;;;;;;;;;;;3.53;100.00;100933.16;4919447;29;20378;-86
2023/02/03 13:00:25;;;;;;;;;;;;;;;3.49;100.00;100928.78;4938773;29;19931;-88
2023/02/03 13:03:09;;;;;;;;;;;;;;;3.45;100.00;100926.13;4932958;29;19919;-89
2023/02/03 13:05:43;;;;;;;;;;;;;;;3.47;100.00;100927.91;4935963;29;19927;-90
2023/02/03 13:08:14;;;;;;;;;;;;;;;3.40;100.00;100924.38;4922335;29;19919;-90
2023/02/03 13:10:51;;;;;;;;;;;;;;;3.41;100.00;100915.63;4936803;29;19922;-86
2023/02/03 13:13:22;;;;;;;;;;;;;;;3.41;100.00;100910.38;4921544;29;20017;-86
2023/02/03 13:15:49;;;;;;;;;;;;;;;3.37;100.00;100906.03;4937644;29;19922;-86
2023/02/03 13:18:25;;;;;;;;;;;;;;;3.33;100.00;100905.09;4920394;29;20347;-86
2023/02/03 13:20:51;;;;;;;;;;;;;;;3.33;100.00;100899.00;4921102;29;19923;-87
2023/02/03 13:23:16;;;;;;;;;;;;;;;3.34;100.00;100882.41;4921308;29;19970;-87
2023/02/03 13:25:44;;;;;;;;;;;;;;;3.27;100.00;100881.50;4935699;29;19933;-88
2023/02/03 13:28:30;;;;;;;;;;;;;;;3.26;100.00;100878.00;4919417;29;20408;-87
2023/02/03 13:30:58;;;;;;;;;;;;;;;3.22;100.00;100878.88;4920532;29;19919;-87
2023/02/03 13:33:23;;;;;;;;;;;;;;;3.23;100.00;100869.28;4936533;29;20374;-87
2023/02/03 13:35:58;;;;;;;;;;;;;;;3.21;100.00;100863.16;4937656;29;19974;-88
2023/02/03 13:38:42;;;;;;;;;;;;;;;3.16;100.00;100857.00;4938181;29;19919;-88
2023/02/03 13:41:14;;;;;;;;;;;;;;;3.14;100.00;100838.66;4934586;29;20420;-86
2023/02/03 13:43:43;;;;;;;;;;;;;;;3.13;100.00;100859.59;4936935;29;19919;-89
2023/02/03 13:46:20;;;;;;;;;;;;;;;3.17;100.00;100861.38;4935963;29;19922;-88
2023/02/03 13:48:48;;;;;;;;;;;;;;;3.10;100.00;100860.47;4935053;29;19973;-87
2023/02/03 13:51:23;;;;;;;;;;;;;;;3.11;100.00;100851.72;4920801;29;19965;-89
2023/02/03 13:53:50;;;;;;;;;;;;;;;3.08;100.00;100857.00;4934964;29;19926;-86
2023/02/03 13:56:27;;;;;;;;;;;;;;;3.07;100.00;100857.84;4936736;29;19926;-88
2023/02/03 13:59:19;;;;;;;;;;;;;;;3.02;100.00;100863.06;4919630;29;19930;-89
2023/02/03 14:01:49;;;;;;;;;;;;;;;2.97;100.00;100864.78;4936937;29;19977;-87
2023/02/03 14:04:20;;;;;;;;;;;;;;;3.03;100.00;100867.44;4920995;29;20330;-86
2023/02/03 14:06:58;;;;;;;;;;;;;;;;;;;;;
2023/02/03 14:09:30;;;;;;;;;;;;;;;2.98;100.00;100874.38;4934429;29;20285;-87
2023/02/03 14:12:13;;;;;;;;;;;;;;;2.91;100.00;100872.59;4935103;29;19923;-86
2023/02/03 14:14:39;;;;;;;;;;;;;;;2.90;100.00;100865.59;4937424;29;19919;-87
2023/02/03 14:17:07;;;;;;;;;;;;;;;2.90;100.00;100865.59;4937442;29;19983;-88
2023/02/03 14:19:32;;;;;;;;;;;;;;;2.85;100.00;100865.56;4936566;29;20294;-87
2023/02/03 14:22:14;;;;;;;;;;;;;;;2.86;100.00;100879.56;4919220;29;19923;-89
2023/02/03 14:24:52;;;;;;;;;;;;;;;2.87;100.00;100879.56;4937300;29;19923;-88
2023/02/03 14:27:30;;;;;;;;;;;;;;;2.84;100.00;100883.88;4936113;29;19919;-89
2023/02/03 14:30:09;;;;;;;;;;;;;;;2.84;100.00;100884.78;4932117;29;19937;-87
2023/02/03 14:32:50;;;;;;;;;;;;;;;2.77;100.00;100861.16;4936251;29;20348;-87
2023/02/03 14:35:16;;;;;;;;;;;;;;;2.82;100.00;100873.41;4937184;29;20013;-87
2023/02/03 14:37:50;;;;;;;;;;;;;;;2.83;100.00;100866.44;4919097;29;19922;-88
2023/02/03 14:40:26;;;;;;;;;;;;;;;2.81;100.00;100862.91;4934633;29;19930;-88
2023/02/03 14:42:57;;;;;;;;;;;;;;;2.79;100.00;100877.75;4919574;29;19925;-85
2023/02/03 14:45:41;;;;;;;;;;;;;;;2.83;100.00;100884.78;4931671;29;19923;-88
2023/02/03 14:48:32;;;;;;;;;;;;;;;2.83;100.00;100888.25;4932676;29;20457;-88
2023/02/03 14:50:58;;;;;;;;;;;;;;;2.81;100.00;100883.88;4935898;29;20466;-88
2023/02/03 14:53:42;;;;;;;;;;;;;;;2.76;100.00;100882.97;4919522;29;20025;-87
2023/02/03 14:56:25;;;;;;;;;;;;;;;2.77;100.00;100887.34;4934694;29;19973;-90
2023/02/03 14:58:57;;;;;;;;;;;;;;;2.77;100.00;100889.97;4953623;28;19931;-89
2023/02/03 15:01:34;;;;;;;;;;;;;;;2.74;100.00;100885.56;4938904;29;20009;-88
2023/02/03 15:04:11;;;;;;;;;;;;;;;2.75;100.00;100865.53;4955742;29;19919;-86
2023/02/03 15:06:39;;;;;;;;;;;;;;;2.78;100.00;100881.25;4956341;29;19922;-89
2023/02/03 15:09:23;;;;;;;;;;;;;;;2.77;100.00;100879.50;4955653;29;19926;-86
2023/02/03 15:11:51;;;;;;;;;;;;;;;2.73;100.00;100887.31;4952980;29;19977;-88
2023/02/03 15:14:34;;;;;;;;;;;;;;;2.76;100.00;100886.47;4937801;28;20392;-89
2023/02/03 15:17:21;;;;;;;;;;;;;;;;;;;;;
2023/02/03 15:19:50;;;;;;;;;;;;;;;2.76;100.00;100902.19;4951873;28;19926;-87
2023/02/03 15:22:22;;;;;;;;;;;;;;;2.73;100.00;100892.56;4949367;29;20285;-88
2023/02/03 15:24:52;;;;;;;;;;;;;;;2.73;100.00;100886.44;4941186;28;19981;-87
2023/02/03 15:27:26;;;;;;;;;;;;;;;2.73;100.00;100896.94;4954062;29;20321;-87
2023/02/03 15:29:56;;;;;;;;;;;;;;;2.73;100.00;100897.78;4953263;29;20009;-88
2023/02/03 15:32:28;;;;;;;;;;;;;;;2.69;100.00;100901.25;4951503;28;19970;-89
2023/02/03 15:34:54;;;;;;;;;;;;;;;2.70;100.00;100905.63;4934008;29;20479;-88
2023/02/03 15:37:39;;;;;;;;;;;;;;;2.65;100.00;100899.47;4955442;29;20366;-87
2023/02/03 15:40:12;;;;;;;;;;;;;;;2.71;100.00;100894.28;4933129;29;19928;-87
2023/02/03 15:42:56;;;;;;;;;;;;;;;2.68;100.00;100894.28;4951485;28;19923;-88
2023/02/03 15:45:38;;;;;;;;;;;;;;;2.70;100.00;100913.47;4948725;28;19926;-90
2023/02/03 15:48:13;;;;;;;;;;;;;;;2.65;100.00;100917.81;4935626;29;20013;-88
2023/02/03 15:50:42;;;;;;;;;;;;;;;2.69;100.00;100918.69;4950496;29;19970;-87
2023/02/03 15:53:14;;;;;;;;;;;;;;;2.66;100.00;100916.91;4941561;28;20052;-87
2023/02/03 15:55:45;;;;;;;;;;;;;;;2.66;100.00;100910.81;4951389;28;20027;-90
2023/02/03 15:58:27;;;;;;;;;;;;;;;3.30;100.00;100926.03;4936658;29;19933;-87
2023/02/03 16:00:54;;;;;;;;;;;;;;;2.98;100.00;100920.63;4957313;29;20337;-87
2023/02/03 16:03:38;;;;;;;;;;;;;;;2.86;100.00;100918.81;4958462;29;19930;-86
2023/02/03 16:06:18;;;;;;;;;;;;;;;2.81;100.00;100917.88;4954805;28;19926;-84
2023/02/03 16:08:47;;;;;;;;;;;;;;;2.83;100.00;100913.56;4958077;29;19973;-85
2023/02/03 16:11:19;;;;;;;;;;;;;;;2.77;100.00;100910.91;4954309;28;19930;-86
2023/02/03 16:13:45;;;;;;;;;;;;;;;2.74;100.00;100927.44;4954511;28;19922;-85
2023/02/03 16:16:22;;;;;;;;;;;;;;;2.76;100.00;100928.34;4940662;29;20498;-87
2023/02/03 16:18:53;;;;;;;;;;;;;;;2.70;100.00;100921.31;4939491;28;19934;-86
2023/02/03 16:21:29;;;;;;;;;;;;;;;2.72;100.00;100916.97;4957844;29;19922;-85
2023/02/03 16:23:55;;;;;;;;;;;;;;;2.69;100.00;100922.19;4940028;29;20384;-91
2023/02/03 16:26:21;;;;;;;;;;;;;;;2.69;100.00;100926.53;4938057;29;19922;-85
2023/02/03 16:54:33;;;;;;;;;;;;;;;;;;;;;
2023/02/03 16:57:16;;;;;;;;;;;;;;;2.72;100.00;100978.91;4957126;29;19929;-88
2023/02/03 16:59:45;;;;;;;;;;;;;;;2.70;100.00;100973.66;4957099;29;19933;-90
2023/02/03 17:02:29;;;;;;;;;;;;;;;;;;;;;
2023/02/03 17:04:54;;;;;;;;;;;;;;;2.78;100.00;100970.25;4957532;29;19922;-90
2023/02/03 17:07:23;;;;;;;;;;;;;;;2.74;100.00;100969.31;4957229;28;20013;-90
2023/02/03 17:09:49;;;;;;;;;;;;;;;2.70;100.00;100976.28;4957715;29;19919;-89
2023/02/03 17:12:14;;;;;;;;;;;;;;;2.73;100.00;100968.47;4935879;29;19923;-86
2023/02/03 17:14:48;;;;;;;;;;;;;;;2.77;100.00;100971.09;4957017;29;19977;-87
2023/02/03 17:17:14;;;;;;;;;;;;;;;2.77;100.00;100971.09;4939318;29;19926;-85
2023/02/03 17:19:39;;;;;;;;;;;;;;;2.73;100.00;100960.59;4936917;29;19919;-84
2023/02/03 17:22:04;;;;;;;;;;;;;;;2.76;100.00;100964.09;4938264;29;19918;-86
2023/02/03 17:24:30;;;;;;;;;;;;;;;2.72;100.00;100964.09;4938396;29;20001;-86
2023/02/03 17:26:55;;;;;;;;;;;;;;;2.75;100.00;100967.59;4936973;29;20378;-86
2023/02/03 17:29:20;;;;;;;;;;;;;;;2.78;100.00;100955.41;4949007;29;19923;-83
2023/02/03 17:31:46;;;;;;;;;;;;;;;2.78;100.00;100958.03;4955044;29;19984;-87
2023/02/03 17:34:11;;;;;;;;;;;;;;;2.78;100.00;100967.63;4952594;29;19926;-85
2023/02/03 17:36:36;;;;;;;;;;;;;;;2.78;100.00;100970.25;4953076;29;19934;-84
2023/02/03 17:39:02;;;;;;;;;;;;;;;2.78;100.00;100970.25;4953944;29;19922;-86
2023/02/03 17:41:27;;;;;;;;;;;;;;;2.78;100.00;100967.63;4933745;29;20019;-87
2023/02/03 17:43:52;;;;;;;;;;;;;;;2.86;100.00;100974.66;4956364;29;20428;-87
2023/02/03 17:46:22;;;;;;;;;;;;;;;2.79;100.00;100975.47;4956952;29;19914;-87
2023/02/03 17:48:48;;;;;;;;;;;;;;;2.78;100.00;100978.09;4937169;29;20002;-89
2023/02/03 17:51:30;;;;;;;;;;;;;;;;;;;;;
2023/02/03 17:54:06;;;;;;;;;;;;;;;2.89;100.00;100981.69;4895640;29;19930;-85
2023/02/03 17:56:32;;;;;;;;;;;;;;;2.89;100.00;100986.91;4936493;29;20366;-86
2023/02/03 17:58:59;;;;;;;;;;;;;;;2.90;100.00;100999.13;4955950;29;19966;-84
2023/02/03 18:01:27;;;;;;;;;;;;;;;2.91;100.00;100991.28;4954525;29;20278;-85
2023/02/03 18:04:10;;;;;;;;;;;;;;;2.90;100.00;100988.66;4956014;29;19933;-83
2023/02/03 18:06:36;;;;;;;;;;;;;;;2.89;100.00;100985.16;4956500;29;20037;-83
2023/02/03 18:09:05;;;;;;;;;;;;;;;2.95;100.00;100980.84;4956414;29;20021;-86
2023/02/03 18:11:31;;;;;;;;;;;;;;;2.90;100.00;100994.78;4954351;29;19973;-86
2023/02/03 18:13:57;;;;;;;;;;;;;;;2.98;100.00;100986.97;4955187;29;19922;-84
2023/02/03 18:16:27;;;;;;;;;;;;;;;2.92;100.00;100992.19;4937735;29;20026;-84
2023/02/03 18:18:53;;;;;;;;;;;;;;;2.99;100.00;100988.72;4951772;29;19918;-82
2023/02/03 18:21:20;;;;;;;;;;;;;;;2.99;100.00;100999.19;4955453;29;19922;-83
2023/02/03 18:23:45;;;;;;;;;;;;;;;3.04;100.00;101000.09;4956061;29;20366;-85
2023/02/03 18:26:12;;;;;;;;;;;;;;;3.01;100.00;100994.84;4955197;29;19921;-84
2023/02/03 18:28:38;;;;;;;;;;;;;;;3.05;100.00;100999.25;4956394;29;19966;-85
2023/02/03 18:31:05;;;;;;;;;;;;;;;3.07;100.00;101002.75;4938832;29;19915;-85
2023/02/03 18:33:31;;;;;;;;;;;;;;;3.05;100.00;101004.50;4956364;29;19919;-87
2023/02/03 18:35:57;;;;;;;;;;;;;;;3.08;100.00;101008.88;4956226;29;19926;-85
2023/02/03 18:38:23;;;;;;;;;;;;;;;3.08;100.00;101020.22;4956063;29;19925;-87
2023/02/03 18:40:48;;;;;;;;;;;;;;;3.06;100.00;101021.97;4954874;29;19958;-86
2023/02/03 18:43:13;;;;;;;;;;;;;;;3.04;100.00;101023.69;4955872;29;19922;-86
2023/02/03 18:45:41;;;;;;;;;;;;;;;3.03;100.00;101021.94;4938778;29;19925;-85
2023/02/03 18:48:06;;;;;;;;;;;;;;;3.04;100.00;101017.56;4955165;29;19969;-86
2023/02/03 18:50:31;;;;;;;;;;;;;;;3.08;100.00;101016.75;4955820;29;19918;-86
2023/02/03 18:52:59;;;;;;;;;;;;;;;3.11;100.00;101021.09;4938699;29;19918;-86
2023/02/03 18:55:24;;;;;;;;;;;;;;;3.11;100.00;101019.34;4954679;29;20329;-86
2023/02/03 18:57:50;;;;;;;;;;;;;;;3.09;100.00;101016.75;4955005;29;19922;-86
2023/02/03 19:00:15;;;;;;;;;;;;;;;3.13;100.00;101022.88;4948052;29;19944;-85
2023/02/03 19:02:41;;;;;;;;;;;;;;;3.11;100.00;101021.97;4955299;29;19915;-85
2023/02/03 19:05:08;;;;;;;;;;;;;;;3.12;100.00;101012.41;4954755;29;19922;-86
2023/02/03 19:07:36;;;;;;;;;;;;;;;3.11;100.00;101021.09;4954918;29;19970;-88
2023/02/03 19:10:01;;;;;;;;;;;;;;;3.16;100.00;101009.81;4938035;29;19941;-85
2023/02/03 19:12:27;;;;;;;;;;;;;;;3.17;100.00;101008.94;4954310;29;20354;-86
2023/02/03 19:14:52;;;;;;;;;;;;;;;3.15;100.00;101010.66;4954547;29;19926;-85
2023/02/03 19:17:18;;;;;;;;;;;;;;;3.18;100.00;101026.41;4934923;29;19919;-87
2023/02/03 19:19:43;;;;;;;;;;;;;;;3.21;100.00;101025.56;4946369;29;19925;-86
2023/02/03 19:22:12;;;;;;;;;;;;;;;3.22;100.00;101029.91;4955187;29;19919;-84
2023/02/03 19:24:40;;;;;;;;;;;;;;;3.26;100.00;101029.09;4930909;29;19919;-86
2023/02/03 19:27:05;;;;;;;;;;;;;;;3.18;100.00;101034.25;4932904;29;19923;-88
2023/02/03 19:29:37;;;;;;;;;;;;;;;3.21;100.00;101036.03;4933986;29;19948;-85
2023/02/03 19:32:03;;;;;;;;;;;;;;;3.24;100.00;101034.31;4928634;29;19933;-86
2023/02/03 19:34:28;;;;;;;;;;;;;;;3.24;100.00;101030.81;4932030;29;19956;-88
2023/02/03 19:37:01;;;;;;;;;;;;;;;3.24;100.00;101038.69;4914868;29;19927;-89
2023/02/03 19:39:27;;;;;;;;;;;;;;;3.34;100.00;101040.50;4914747;29;19923;-85
2023/02/03 19:41:52;;;;;;;;;;;;;;;3.32;100.00;101050.09;4923506;29;19919;-86
2023/02/03 19:44:17;;;;;;;;;;;;;;;3.33;100.00;101059.69;4933705;29;20413;-85
2023/02/03 19:46:48;;;;;;;;;;;;;;;3.31;100.00;101057.94;4933589;29;20003;-90
2023/02/03 19:49:16;;;;;;;;;;;;;;;3.30;100.00;101057.03;4934466;29;20429;-88
2023/02/03 19:51:51;;;;;;;;;;;;;;;3.34;100.00;101057.97;4955014;29;20010;-94
2023/02/03 19:54:26;;;;;;;;;;;;;;;3.36;100.00;101057.09;4954839;29;19925;-91
2023/02/03 19:56:52;;;;;;;;;;;;;;;3.37;100.00;101066.72;4954175;28;19922;-90
2023/02/03 19:59:17;;;;;;;;;;;;;;;3.37;100.00;101069.34;4938092;29;19918;-87
2023/02/03 20:01:45;;;;;;;;;;;;;;;3.37;100.00;101069.34;4955062;29;19918;-94
2023/02/03 20:04:10;;;;;;;;;;;;;;;3.38;100.00;101058.00;4954971;29;19919;-87
2023/02/03 20:06:40;;;;;;;;;;;;;;;3.40;100.00;101056.25;4954294;29;19974;-90
2023/02/03 20:09:06;;;;;;;;;;;;;;;3.37;100.00;101071.94;4955307;29;19926;-89
2023/02/03 20:11:31;;;;;;;;;;;;;;;3.42;100.00;101064.13;4953680;29;20366;-85
2023/02/03 20:14:17;;;;;;;;;;;;;;;;;;;;;
2023/02/03 20:17:06;;;;;;;;;;;;;;;3.49;100.00;101065.03;4954948;29;19929;-91
2023/02/03 20:19:51;;;;;;;;;;;;;;;3.50;100.00;101064.19;4954726;29;20020;-90
2023/02/03 20:22:19;;;;;;;;;;;;;;;3.51;100.00;101068.53;4954128;29;19926;-88
2023/02/03 20:27:33;;;;;;;;;;;;;;;3.75;100.00;101084.44;4926090;29;19918;-86
2023/02/03 20:29:58;;;;;;;;;;;;;;;4.02;100.00;101084.56;4954601;29;19922;-91
2023/02/03 20:32:26;;;;;;;;;;;;;;;3.86;100.00;101087.13;4954875;29;19965;-93
2023/02/03 20:34:59;;;;;;;;;;;;;;;3.79;100.00;101080.06;4955788;29;19911;-89
2023/02/03 20:37:24;;;;;;;;;;;;;;;3.81;100.00;101091.44;4953201;29;20374;-88
2023/02/03 20:39:53;;;;;;;;;;;;;;;3.84;100.00;101088.84;4941598;29;19965;-87
2023/02/03 20:42:18;;;;;;;;;;;;;;;3.86;100.00;101094.09;4936512;29;20002;-91
2023/02/03 20:44:51;;;;;;;;;;;;;;;3.84;100.00;101101.94;4956889;29;20362;-90
2023/02/03 20:47:21;;;;;;;;;;;;;;;3.87;100.00;101093.22;4956852;29;19925;-87
2023/02/03 20:49:48;;;;;;;;;;;;;;;3.88;100.00;101092.34;4955772;29;19919;-91
2023/02/03 20:52:14;;;;;;;;;;;;;;;3.92;100.00;101094.13;4957930;29;19926;-85
2023/02/03 20:54:40;;;;;;;;;;;;;;;3.90;100.00;101086.25;4957950;29;19918;-84
2023/02/03 20:57:13;;;;;;;;;;;;;;;3.93;100.00;101085.41;4956437;29;19919;-85
2023/02/03 20:59:38;;;;;;;;;;;;;;;3.96;100.00;101088.03;4957851;29;20273;-85
2023/02/03 21:02:16;;;;;;;;;;;;;;;3.95;100.00;101081.03;4940931;29;20016;-88
2023/02/03 21:04:56;;;;;;;;;;;;;;;3.99;100.00;101083.69;4940696;29;20358;-87
2023/02/03 21:07:22;;;;;;;;;;;;;;;3.94;100.00;101079.28;4957700;29;19973;-88
2023/02/03 21:09:48;;;;;;;;;;;;;;;3.96;100.00;101081.03;4957837;29;19919;-84
2023/02/03 21:12:20;;;;;;;;;;;;;;;4.00;100.00;101087.16;4956596;29;19925;-87
2023/02/03 21:14:49;;;;;;;;;;;;;;;4.02;100.00;101082.84;4957543;29;19965;-83
2023/02/03 21:17:24;;;;;;;;;;;;;;;4.03;100.00;101075.84;4957729;29;19918;-88
2023/02/03 21:19:50;;;;;;;;;;;;;;;4.29;100.00;101073.31;4957582;29;19926;-86
2023/02/03 21:22:18;;;;;;;;;;;;;;;4.36;100.00;101075.09;4957570;29;19919;-84
2023/02/03 21:24:48;;;;;;;;;;;;;;;4.37;100.00;101076.81;4957383;29;19973;-88
2023/02/03 21:27:24;;;;;;;;;;;;;;;4.34;100.00;101069.84;4938897;29;19918;-90
2023/02/03 21:29:54;;;;;;;;;;;;;;;4.39;100.00;101077.72;4954588;29;20369;-85
2023/02/03 21:32:23;;;;;;;;;;;;;;;4.40;100.00;101078.59;4953280;29;19925;-90
2023/02/03 21:34:48;;;;;;;;;;;;;;;4.42;100.00;101067.22;4940068;29;19926;-88
2023/02/03 21:37:20;;;;;;;;;;;;;;;4.42;100.00;101069.84;4940204;29;20313;-91
2023/02/03 21:39:48;;;;;;;;;;;;;;;4.40;100.00;101075.97;4957009;29;19918;-90
2023/02/03 21:42:54;;;;;;;;;;;;;;;4.42;100.00;101075.09;4955790;29;19925;-89
2023/02/03 21:45:41;;;;;;;;;;;;;;;4.44;100.00;101080.38;4898891;29;19919;-92
2023/02/03 21:48:22;;;;;;;;;;;;;;;4.43;100.00;101084.72;4917618;29;20362;-87